Natures Way Challenger — WDF7294 — position and weather

sailwx.info

Track history (hours):
 
Tides and Currents Weather Stations Pressure Air Temp Water Temp Dewpoint Dewpoint Depression Visibility Wind Speed Wind Dir Waves Ship Positions

Natures Way Challenger

Owner: Natures Way Marine, LLC, Theodore, AL. More information available from US FCC via Universal Licensing System and Coast Guard Vessel Documentation Center.

Last reported at 2015-Feb-28 11:33 UTC. Time now 2015-Mar-04 16:51 UTC.
Position N 29°54' W 089°59'.

Length 14 m.

Type: Towing. MMSI: 367483050.

Date/timePositionNaut miles runAvg speedWind from/ knotsBaromVisibWave heightAir tempDewpointWater temp
2015-Feb-28 11:33N 29°54' W 089°59'5 2.4
2015-Feb-28 09:24N 29°51' W 090°04'3 3.1
2015-Feb-28 08:28N 29°54' W 090°05'0 0.0
2015-Feb-28 07:33N 29°54' W 090°05'3 2.4
2015-Feb-28 06:29N 29°52' W 090°04'5 2.7
2015-Feb-28 04:33N 29°55' W 089°59'0 0.1
2015-Feb-28 03:32N 29°55' W 089°59'0 0.1
2015-Feb-28 02:05N 29°54' W 089°59'0 0.3
2015-Feb-28 01:32N 29°54' W 089°59'53 2.6
2015-Feb-27 05:10N 29°33' W 090°55'2 3.9
2015-Feb-27 04:34N 29°34' W 090°57'4 3.8
2015-Feb-27 03:33N 29°37' W 090°60'4 3.6
2015-Feb-27 02:34N 29°37' W 091°04'3 2.6
2015-Feb-27 01:34N 29°38' W 091°07'4 3.6
2015-Feb-27 00:34N 29°41' W 091°09'3 2.7
2015-Feb-26 23:34N 29°41' W 091°12'3 2.8
2015-Feb-26 22:34N 29°44' W 091°11'2 2.3
2015-Feb-26 21:33N 29°46' W 091°11'2 1.8
2015-Feb-26 20:34N 29°48' W 091°10'3 2.6
2015-Feb-26 19:33N 29°50' W 091°11'3 2.7
2015-Feb-26 18:34N 29°48' W 091°10'3 2.8
2015-Feb-26 17:34N 29°45' W 091°11'2 2.3
2015-Feb-26 16:34N 29°43' W 091°12'2 2.2
2015-Feb-26 15:33N 29°41' W 091°13'2 2.4
2015-Feb-26 14:33N 29°40' W 091°15'2 1.6
2015-Feb-26 13:33N 29°39' W 091°16'3 2.6
2015-Feb-26 12:34N 29°38' W 091°19'2 2.0
2015-Feb-26 11:33N 29°39' W 091°22'3 2.8
2015-Feb-26 10:27N 29°39' W 091°25'8 2.5
2015-Feb-26 07:25N 29°43' W 091°33'  
2015-Feb-22 19:05N 29°32' W 094°54'2 4.1
2015-Feb-22 18:33N 29°34' W 094°55'4 4.2
2015-Feb-22 17:33N 29°38' W 094°58'4 3.8
2015-Feb-22 16:33N 29°41' W 094°60'1 0.5
2015-Feb-22 15:33N 29°41' W 095°00'0 0.0
2015-Feb-22 14:33N 29°41' W 095°00'0 0.0
2015-Feb-22 13:33N 29°41' W 095°00'0 0.0
2015-Feb-22 12:33N 29°41' W 095°00'0 0.0
2015-Feb-22 11:29N 29°41' W 095°00'0 0.0
2015-Feb-22 10:30N 29°41' W 095°00'0 0.0
2015-Feb-22 09:33N 29°41' W 095°00'0 0.0
2015-Feb-22 08:33N 29°41' W 095°00'0 0.0
2015-Feb-22 07:33N 29°41' W 095°00'0 0.0
2015-Feb-22 06:34N 29°41' W 095°00'0 0.0
2015-Feb-22 05:33N 29°41' W 095°00'0 0.0
2015-Feb-22 04:33N 29°41' W 095°00'0 0.0
2015-Feb-22 03:33N 29°41' W 095°00'0 0.0
2015-Feb-22 02:34N 29°41' W 095°00'0 0.0
2015-Feb-22 01:33N 29°41' W 095°00'0 0.0
2015-Feb-22 00:33N 29°41' W 095°00'0 0.0
2015-Feb-21 21:05N 29°41' W 095°00'0 0.0
2015-Feb-21 20:33N 29°41' W 095°00'0 0.0
2015-Feb-21 19:33N 29°41' W 095°00'0 0.0
2015-Feb-21 18:33N 29°41' W 095°00'0 0.0
2015-Feb-21 17:33N 29°41' W 095°00'0 0.0
2015-Feb-21 16:33N 29°41' W 095°00'0 0.0
2015-Feb-21 15:32N 29°41' W 095°00'0 0.0
2015-Feb-21 14:33N 29°41' W 095°00'0 0.0
2015-Feb-21 13:32N 29°41' W 095°00'0 0.0
2015-Feb-21 12:34N 29°41' W 095°00'0 0.0
2015-Feb-21 11:33N 29°41' W 095°00'0 0.0
2015-Feb-21 10:33N 29°41' W 095°00'0 0.0
2015-Feb-21 09:33N 29°41' W 095°00'0 0.0
2015-Feb-21 08:33N 29°41' W 095°00'0 0.0
2015-Feb-21 07:33N 29°41' W 095°00'0 0.0
2015-Feb-21 06:33N 29°41' W 095°00'0 0.0
2015-Feb-21 05:33N 29°41' W 095°00'0 0.0
2015-Feb-21 04:33N 29°41' W 095°00'0 0.0
2015-Feb-21 03:33N 29°41' W 095°00'0 0.0
2015-Feb-21 02:33N 29°41' W 095°00'0 0.0
2015-Feb-21 01:33N 29°41' W 095°00'0 0.0
2015-Feb-21 00:33N 29°41' W 095°00'0 0.0
2015-Feb-20 23:33N 29°41' W 095°00'0 0.0
2015-Feb-20 22:33N 29°41' W 095°00'1 0.9
2015-Feb-20 21:33N 29°41' W 094°59'4 3.7
2015-Feb-20 20:32N 29°44' W 095°02'3 3.3
2015-Feb-20 19:33N 29°45' W 095°06'4 3.7
2015-Feb-20 18:33N 29°45' W 095°10'0 0.3
2015-Feb-20 17:33N 29°45' W 095°10'2 1.6
2015-Feb-20 16:33N 29°44' W 095°09'3 3.4
2015-Feb-20 15:33N 29°46' W 095°05'1 1.0
2015-Feb-20 14:33N 29°46' W 095°06'0 0.3
2015-Feb-20 13:33N 29°47' W 095°06'0 0.0
2015-Feb-20 12:33N 29°47' W 095°06'0 0.0
2015-Feb-20 11:32N 29°47' W 095°06'0 0.0
2015-Feb-20 10:33N 29°47' W 095°06'0 0.0
2015-Feb-20 09:33N 29°47' W 095°06'0 0.0
2015-Feb-20 08:33N 29°47' W 095°06'0 0.0
2015-Feb-20 07:33N 29°47' W 095°06'0 0.0
2015-Feb-20 06:33N 29°47' W 095°06'0 0.0
2015-Feb-20 05:33N 29°47' W 095°06'0 0.0
2015-Feb-20 04:33N 29°47' W 095°06'0 0.0
2015-Feb-20 03:33N 29°47' W 095°06'0 0.0
2015-Feb-20 02:33N 29°47' W 095°06'0 0.0
2015-Feb-20 01:33N 29°47' W 095°06'0 0.0
2015-Feb-20 00:33N 29°47' W 095°06'1 1.5
2015-Feb-19 23:33N 29°45' W 095°06'0 0.3
2015-Feb-19 22:33N 29°46' W 095°06'0 0.0
2015-Feb-19 21:33N 29°45' W 095°06'0 0.0
2015-Feb-19 19:33N 29°45' W 095°06'1 1.3
2015-Feb-19 18:33N 29°47' W 095°06'0 0.0
2015-Feb-19 17:32N 29°47' W 095°06'0 0.0
2015-Feb-19 16:33N 29°47' W 095°06'0 0.0
2015-Feb-19 15:33N 29°47' W 095°06'0 0.0
2015-Feb-19 14:33N 29°47' W 095°06'0 0.0
2015-Feb-19 13:33N 29°47' W 095°06'0 0.0
2015-Feb-19 12:33N 29°47' W 095°06'0 0.0
2015-Feb-19 11:33N 29°47' W 095°06'0 0.0
2015-Feb-19 10:33N 29°47' W 095°06'0 0.0
2015-Feb-19 09:33N 29°47' W 095°06'0 0.0
2015-Feb-19 08:31N 29°47' W 095°06'0 0.0
2015-Feb-19 07:33N 29°47' W 095°06'0 0.0
2015-Feb-19 06:33N 29°47' W 095°06'0 0.0
2015-Feb-19 05:32N 29°47' W 095°06'0 0.0
2015-Feb-19 04:33N 29°47' W 095°06'0 0.0
2015-Feb-19 03:33N 29°47' W 095°06'0 0.0
2015-Feb-19 02:33N 29°47' W 095°06'0 0.0
2015-Feb-19 01:33N 29°47' W 095°06'0 0.0
2015-Feb-19 00:33N 29°47' W 095°06'1 0.6
2015-Feb-18 23:33N 29°46' W 095°06'1 1.2
2015-Feb-18 22:33N 29°46' W 095°05'1 1.4
2015-Feb-18 21:33N 29°47' W 095°04'1 1.3
2015-Feb-18 20:25N 29°47' W 095°06'0 0.0
2015-Feb-18 19:27N 29°47' W 095°06'0 0.0
2015-Feb-18 18:33N 29°47' W 095°06'0 0.0
2015-Feb-18 17:33N 29°47' W 095°06'0 0.0
2015-Feb-18 16:33N 29°47' W 095°06'0 0.0
2015-Feb-18 15:30N 29°47' W 095°06'0 0.0
2015-Feb-18 14:33N 29°47' W 095°06'0 0.0
2015-Feb-18 13:33N 29°47' W 095°06'0 0.0
2015-Feb-18 12:33N 29°47' W 095°06'0 0.0
2015-Feb-18 11:33N 29°47' W 095°06'  
Track history (hours):
 
Tides and Currents Weather Stations Pressure Air Temp Water Temp Dewpoint Dewpoint Depression Visibility Wind Speed Wind Dir Waves Ship Positions

Natures Way Challenger

Owner: Natures Way Marine, LLC, Theodore, AL. More information available from US FCC via Universal Licensing System and Coast Guard Vessel Documentation Center.

Last reported at 2015-Feb-28 11:33 UTC. Time now 2015-Mar-04 16:51 UTC.
Position N 29°54' W 089°59'.

Length 14 m.

Type: Towing. MMSI: 367483050.

Date/timePositionNaut miles runAvg speedWind from/ knotsBaromVisibWave heightAir tempDewpointWater temp
2015-Feb-28 11:33N 29°54' W 089°59'5 2.4
2015-Feb-28 09:24N 29°51' W 090°04'3 3.1
2015-Feb-28 08:28N 29°54' W 090°05'0 0.0
2015-Feb-28 07:33N 29°54' W 090°05'3 2.4
2015-Feb-28 06:29N 29°52' W 090°04'5 2.7
2015-Feb-28 04:33N 29°55' W 089°59'0 0.1
2015-Feb-28 03:32N 29°55' W 089°59'0 0.1
2015-Feb-28 02:05N 29°54' W 089°59'0 0.3
2015-Feb-28 01:32N 29°54' W 089°59'53 2.6
2015-Feb-27 05:10N 29°33' W 090°55'2 3.9
2015-Feb-27 04:34N 29°34' W 090°57'4 3.8
2015-Feb-27 03:33N 29°37' W 090°60'4 3.6
2015-Feb-27 02:34N 29°37' W 091°04'3 2.6
2015-Feb-27 01:34N 29°38' W 091°07'4 3.6
2015-Feb-27 00:34N 29°41' W 091°09'3 2.7
2015-Feb-26 23:34N 29°41' W 091°12'3 2.8
2015-Feb-26 22:34N 29°44' W 091°11'2 2.3
2015-Feb-26 21:33N 29°46' W 091°11'2 1.8
2015-Feb-26 20:34N 29°48' W 091°10'3 2.6
2015-Feb-26 19:33N 29°50' W 091°11'3 2.7
2015-Feb-26 18:34N 29°48' W 091°10'3 2.8
2015-Feb-26 17:34N 29°45' W 091°11'2 2.3
2015-Feb-26 16:34N 29°43' W 091°12'2 2.2
2015-Feb-26 15:33N 29°41' W 091°13'2 2.4
2015-Feb-26 14:33N 29°40' W 091°15'2 1.6
2015-Feb-26 13:33N 29°39' W 091°16'3 2.6
2015-Feb-26 12:34N 29°38' W 091°19'2 2.0
2015-Feb-26 11:33N 29°39' W 091°22'3 2.8
2015-Feb-26 10:27N 29°39' W 091°25'8 2.5
2015-Feb-26 07:25N 29°43' W 091°33'  
2015-Feb-22 19:05N 29°32' W 094°54'2 4.1
2015-Feb-22 18:33N 29°34' W 094°55'4 4.2
2015-Feb-22 17:33N 29°38' W 094°58'4 3.8
2015-Feb-22 16:33N 29°41' W 094°60'1 0.5
2015-Feb-22 15:33N 29°41' W 095°00'0 0.0
2015-Feb-22 14:33N 29°41' W 095°00'0 0.0
2015-Feb-22 13:33N 29°41' W 095°00'0 0.0
2015-Feb-22 12:33N 29°41' W 095°00'0 0.0
2015-Feb-22 11:29N 29°41' W 095°00'0 0.0
2015-Feb-22 10:30N 29°41' W 095°00'0 0.0
2015-Feb-22 09:33N 29°41' W 095°00'0 0.0
2015-Feb-22 08:33N 29°41' W 095°00'0 0.0
2015-Feb-22 07:33N 29°41' W 095°00'0 0.0
2015-Feb-22 06:34N 29°41' W 095°00'0 0.0
2015-Feb-22 05:33N 29°41' W 095°00'0 0.0
2015-Feb-22 04:33N 29°41' W 095°00'0 0.0
2015-Feb-22 03:33N 29°41' W 095°00'0 0.0
2015-Feb-22 02:34N 29°41' W 095°00'0 0.0
2015-Feb-22 01:33N 29°41' W 095°00'0 0.0
2015-Feb-22 00:33N 29°41' W 095°00'0 0.0
2015-Feb-21 21:05N 29°41' W 095°00'0 0.0
2015-Feb-21 20:33N 29°41' W 095°00'0 0.0
2015-Feb-21 19:33N 29°41' W 095°00'0 0.0
2015-Feb-21 18:33N 29°41' W 095°00'0 0.0
2015-Feb-21 17:33N 29°41' W 095°00'0 0.0
2015-Feb-21 16:33N 29°41' W 095°00'0 0.0
2015-Feb-21 15:32N 29°41' W 095°00'0 0.0
2015-Feb-21 14:33N 29°41' W 095°00'0 0.0
2015-Feb-21 13:32N 29°41' W 095°00'0 0.0
2015-Feb-21 12:34N 29°41' W 095°00'0 0.0
2015-Feb-21 11:33N 29°41' W 095°00'0 0.0
2015-Feb-21 10:33N 29°41' W 095°00'0 0.0
2015-Feb-21 09:33N 29°41' W 095°00'0 0.0
2015-Feb-21 08:33N 29°41' W 095°00'0 0.0
2015-Feb-21 07:33N 29°41' W 095°00'0 0.0
2015-Feb-21 06:33N 29°41' W 095°00'0 0.0
2015-Feb-21 05:33N 29°41' W 095°00'0 0.0
2015-Feb-21 04:33N 29°41' W 095°00'0 0.0
2015-Feb-21 03:33N 29°41' W 095°00'0 0.0
2015-Feb-21 02:33N 29°41' W 095°00'0 0.0
2015-Feb-21 01:33N 29°41' W 095°00'0 0.0
2015-Feb-21 00:33N 29°41' W 095°00'0 0.0
2015-Feb-20 23:33N 29°41' W 095°00'0 0.0
2015-Feb-20 22:33N 29°41' W 095°00'1 0.9
2015-Feb-20 21:33N 29°41' W 094°59'4 3.7
2015-Feb-20 20:32N 29°44' W 095°02'3 3.3
2015-Feb-20 19:33N 29°45' W 095°06'4 3.7
2015-Feb-20 18:33N 29°45' W 095°10'0 0.3
2015-Feb-20 17:33N 29°45' W 095°10'2 1.6
2015-Feb-20 16:33N 29°44' W 095°09'3 3.4
2015-Feb-20 15:33N 29°46' W 095°05'1 1.0
2015-Feb-20 14:33N 29°46' W 095°06'0 0.3
2015-Feb-20 13:33N 29°47' W 095°06'0 0.0
2015-Feb-20 12:33N 29°47' W 095°06'0 0.0
2015-Feb-20 11:32N 29°47' W 095°06'0 0.0
2015-Feb-20 10:33N 29°47' W 095°06'0 0.0
2015-Feb-20 09:33N 29°47' W 095°06'0 0.0
2015-Feb-20 08:33N 29°47' W 095°06'0 0.0
2015-Feb-20 07:33N 29°47' W 095°06'0 0.0
2015-Feb-20 06:33N 29°47' W 095°06'0 0.0
2015-Feb-20 05:33N 29°47' W 095°06'0 0.0
2015-Feb-20 04:33N 29°47' W 095°06'0 0.0
2015-Feb-20 03:33N 29°47' W 095°06'0 0.0
2015-Feb-20 02:33N 29°47' W 095°06'0 0.0
2015-Feb-20 01:33N 29°47' W 095°06'0 0.0
2015-Feb-20 00:33N 29°47' W 095°06'1 1.5
2015-Feb-19 23:33N 29°45' W 095°06'0 0.3
2015-Feb-19 22:33N 29°46' W 095°06'0 0.0
2015-Feb-19 21:33N 29°45' W 095°06'0 0.0
2015-Feb-19 19:33N 29°45' W 095°06'1 1.3
2015-Feb-19 18:33N 29°47' W 095°06'0 0.0
2015-Feb-19 17:32N 29°47' W 095°06'0 0.0
2015-Feb-19 16:33N 29°47' W 095°06'0 0.0
2015-Feb-19 15:33N 29°47' W 095°06'0 0.0
2015-Feb-19 14:33N 29°47' W 095°06'0 0.0
2015-Feb-19 13:33N 29°47' W 095°06'0 0.0
2015-Feb-19 12:33N 29°47' W 095°06'0 0.0
2015-Feb-19 11:33N 29°47' W 095°06'0 0.0
2015-Feb-19 10:33N 29°47' W 095°06'0 0.0
2015-Feb-19 09:33N 29°47' W 095°06'0 0.0
2015-Feb-19 08:31N 29°47' W 095°06'0 0.0
2015-Feb-19 07:33N 29°47' W 095°06'0 0.0
2015-Feb-19 06:33N 29°47' W 095°06'0 0.0
2015-Feb-19 05:32N 29°47' W 095°06'0 0.0
2015-Feb-19 04:33N 29°47' W 095°06'0 0.0
2015-Feb-19 03:33N 29°47' W 095°06'0 0.0
2015-Feb-19 02:33N 29°47' W 095°06'0 0.0
2015-Feb-19 01:33N 29°47' W 095°06'0 0.0
2015-Feb-19 00:33N 29°47' W 095°06'1 0.6
2015-Feb-18 23:33N 29°46' W 095°06'1 1.2
2015-Feb-18 22:33N 29°46' W 095°05'1 1.4
2015-Feb-18 21:33N 29°47' W 095°04'1 1.3
2015-Feb-18 20:25N 29°47' W 095°06'0 0.0
2015-Feb-18 19:27N 29°47' W 095°06'0 0.0
2015-Feb-18 18:33N 29°47' W 095°06'0 0.0
2015-Feb-18 17:33N 29°47' W 095°06'0 0.0
2015-Feb-18 16:33N 29°47' W 095°06'0 0.0
2015-Feb-18 15:30N 29°47' W 095°06'0 0.0
2015-Feb-18 14:33N 29°47' W 095°06'0 0.0
2015-Feb-18 13:33N 29°47' W 095°06'0 0.0
2015-Feb-18 12:33N 29°47' W 095°06'0 0.0
2015-Feb-18 11:33N 29°47' W 095°06'  

Dump ship's entire track history